Time,TemperatureF,DewpointF,PressureIn,WindDirection,WindDirectionDegrees,WindSpeedMPH,WindSpeedGustMPH,Humidity,HourlyPrecipIn,Conditions,Clouds,dailyrainin,SolarRadiationWatts/m^2,SoftwareType,DateUTC
2013-02-02 00:00:00,22.3,9.3,30.19,East,98,0.0,3.0,57,0.00,,,0.00,0.0,meteohub,2013-02-02 05:00:00,
2013-02-02 00:01:00,22.3,9.3,30.19,East,98,0.0,3.0,57,0.00,,,0.00,0.0,meteohub,2013-02-02 05:01:00,
2013-02-02 00:02:00,22.3,9.7,30.19,East,98,1.0,3.0,58,0.00,,,0.00,0.0,meteohub,2013-02-02 05:02:00,
2013-02-02 00:03:00,22.1,9.5,30.19,East,98,0.0,3.0,58,0.00,,,0.00,0.0,meteohub,2013-02-02 05:03:00,
2013-02-02 00:08:00,21.9,9.3,30.19,East,98,0.0,3.0,58,0.00,,,0.00,0.0,meteohub,2013-02-02 05:08:00,
2013-02-02 00:13:00,21.9,9.9,30.19,East,98,0.0,1.0,59,0.00,,,0.00,0.0,meteohub,2013-02-02 05:13:00,
2013-02-02 00:18:00,21.7,8.8,30.19,East,92,0.0,1.0,57,0.00,,,0.00,0.0,meteohub,2013-02-02 05:18:00,
2013-02-02 00:23:00,21.7,9.7,30.19,WSW,248,0.0,3.0,59,0.00,,,0.00,0.0,meteohub,2013-02-02 05:23:00,
2013-02-02 00:28:00,21.7,9.3,30.20,East,90,0.0,5.0,58,0.00,,,0.00,0.0,meteohub,2013-02-02 05:28:00,
2013-02-02 00:33:00,21.7,9.3,30.20,East,90,0.0,5.0,58,0.00,,,0.00,0.0,meteohub,2013-02-02 05:33:00,
2013-02-02 00:38:00,21.7,9.3,30.20,East,90,0.0,2.0,58,0.00,,,0.00,0.0,meteohub,2013-02-02 05:38:00,
2013-02-02 00:43:00,21.7,9.7,30.20,East,90,0.0,2.0,59,0.00,,,0.00,0.0,meteohub,2013-02-02 05:43:00,
2013-02-02 00:48:00,21.6,10.2,30.20,East,90,0.0,1.0,61,0.00,,,0.00,0.0,meteohub,2013-02-02 05:48:00,
2013-02-02 00:53:00,21.6,9.5,30.20,East,86,0.0,1.0,59,0.00,,,0.00,0.0,meteohub,2013-02-02 05:53:00,
2013-02-02 00:58:00,21.6,9.5,30.20,ESE,116,1.0,1.0,59,0.00,,,0.00,0.0,meteohub,2013-02-02 05:58:00,
2013-02-02 01:03:00,21.6,10.6,30.20,East,91,0.0,2.0,62,0.00,,,0.00,0.0,meteohub,2013-02-02 06:03:00,
2013-02-02 01:09:00,21.6,10.6,30.20,East,91,0.0,3.0,62,0.00,,,0.00,0.0,meteohub,2013-02-02 06:09:00,
2013-02-02 01:14:00,21.6,10.6,30.20,East,91,0.0,3.0,62,0.00,,,0.00,0.0,meteohub,2013-02-02 06:14:00,
2013-02-02 01:19:00,21.4,10.8,30.20,East,98,0.0,3.0,63,0.00,,,0.00,0.0,meteohub,2013-02-02 06:19:00,
2013-02-02 01:24:00,21.4,11.1,30.20,East,98,0.0,2.0,64,0.00,,,0.00,0.0,meteohub,2013-02-02 06:24:00,
2013-02-02 01:29:00,21.2,10.6,30.21,East,98,0.0,2.0,63,0.00,,,0.00,0.0,meteohub,2013-02-02 06:29:00,
2013-02-02 01:34:00,21.4,10.4,30.21,East,85,0.0,2.0,62,0.00,,,0.00,0.0,meteohub,2013-02-02 06:34:00,
2013-02-02 01:39:00,21.4,10.8,30.21,East,79,2.0,5.0,63,0.00,,,0.00,0.0,meteohub,2013-02-02 06:39:00,
2013-02-02 01:44:00,21.4,10.4,30.21,East,79,0.0,5.0,62,0.00,,,0.00,0.0,meteohub,2013-02-02 06:44:00,
2013-02-02 01:49:00,21.4,10.0,30.21,East,79,0.0,5.0,61,0.00,,,0.00,0.0,meteohub,2013-02-02 06:49:00,
2013-02-02 01:54:00,21.6,10.6,30.22,East,79,0.0,3.0,62,0.00,,,0.00,0.0,meteohub,2013-02-02 06:54:00,
2013-02-02 02:00:00,21.6,10.6,30.22,SW,229,0.0,2.0,62,0.00,,,0.00,0.0,meteohub,2013-02-02 07:00:00,
2013-02-02 02:05:00,21.6,10.2,30.22,SW,229,0.0,2.0,61,0.00,,,0.00,0.0,meteohub,2013-02-02 07:05:00,
2013-02-02 02:10:00,21.6,10.2,30.22,SW,229,0.0,2.0,61,0.00,,,0.00,0.0,meteohub,2013-02-02 07:10:00,
2013-02-02 02:15:00,21.6,11.3,30.22,SW,229,0.0,1.0,64,0.00,,,0.00,0.0,meteohub,2013-02-02 07:15:00,
2013-02-02 02:20:00,21.6,10.6,30.22,East,86,0.0,1.0,62,0.00,,,0.00,0.0,meteohub,2013-02-02 07:20:00,
2013-02-02 02:25:00,21.4,10.4,30.22,East,86,0.0,1.0,62,0.00,,,0.00,0.0,meteohub,2013-02-02 07:25:00,
2013-02-02 02:30:00,21.4,10.0,30.22,East,86,0.0,1.0,61,0.00,,,0.00,0.0,meteohub,2013-02-02 07:30:00,
2013-02-02 02:35:00,21.2,10.2,30.22,East,86,0.0,1.0,62,0.00,,,0.00,0.0,meteohub,2013-02-02 07:35:00,
2013-02-02 02:40:00,21.0,10.4,30.22,East,86,0.0,1.0,63,0.00,,,0.00,0.0,meteohub,2013-02-02 07:40:00,
2013-02-02 02:45:00,20.8,10.2,30.23,East,86,0.0,1.0,63,0.00,,,0.00,0.0,meteohub,2013-02-02 07:45:00,
2013-02-02 02:50:00,20.7,10.4,30.22,East,86,0.0,1.0,64,0.00,,,0.00,0.0,meteohub,2013-02-02 07:50:00,
2013-02-02 02:55:00,20.3,10.8,30.22,East,86,0.0,1.0,66,0.00,,,0.00,0.0,meteohub,2013-02-02 07:55:00,
2013-02-02 03:01:00,20.1,10.9,30.22,East,86,0.0,0.0,67,0.00,,,0.00,0.0,meteohub,2013-02-02 08:01:00,
2013-02-02 03:06:00,19.8,11.3,30.22,East,86,0.0,0.0,69,0.00,,,0.00,0.0,meteohub,2013-02-02 08:06:00,
2013-02-02 03:11:00,19.8,11.5,30.23,East,88,0.0,1.0,70,0.00,,,0.00,0.0,meteohub,2013-02-02 08:11:00,
2013-02-02 03:16:00,19.6,11.5,30.23,East,88,0.0,2.0,70,0.00,,,0.00,0.0,meteohub,2013-02-02 08:16:00,
2013-02-02 03:21:00,19.6,11.7,30.23,East,88,0.0,2.0,71,0.00,,,0.00,0.0,meteohub,2013-02-02 08:21:00,
2013-02-02 03:26:00,19.6,11.7,30.23,East,88,0.0,2.0,71,0.00,,,0.00,0.0,meteohub,2013-02-02 08:26:00,
2013-02-02 03:31:00,19.6,11.7,30.23,East,88,0.0,0.0,71,0.00,,,0.00,0.0,meteohub,2013-02-02 08:31:00,
2013-02-02 03:36:00,19.4,11.8,30.24,East,88,0.0,0.0,72,0.00,,,0.00,0.0,meteohub,2013-02-02 08:36:00,
2013-02-02 03:41:00,19.2,12.4,30.24,East,88,0.0,0.0,74,0.00,,,0.00,0.0,meteohub,2013-02-02 08:41:00,
2013-02-02 03:46:00,19.2,12.9,30.24,East,88,0.0,1.0,76,0.00,,,0.00,0.0,meteohub,2013-02-02 08:46:00,
2013-02-02 03:52:00,19.2,12.9,30.24,East,93,0.0,1.0,76,0.00,,,0.00,0.0,meteohub,2013-02-02 08:52:00,
2013-02-02 03:57:00,19.0,13.1,30.24,East,93,0.0,1.0,77,0.00,,,0.00,0.0,meteohub,2013-02-02 08:57:00,
2013-02-02 04:02:00,19.0,13.1,30.24,East,93,0.0,1.0,77,0.00,,,0.00,0.0,meteohub,2013-02-02 09:02:00,
2013-02-02 04:07:00,18.9,13.1,30.24,East,93,0.0,0.0,78,0.00,,,0.00,0.0,meteohub,2013-02-02 09:07:00,
2013-02-02 04:12:00,18.9,13.1,30.23,East,93,0.0,0.0,78,0.00,,,0.00,0.0,meteohub,2013-02-02 09:12:00,
2013-02-02 04:17:00,18.7,13.3,30.23,East,93,0.0,0.0,79,0.00,,,0.00,0.0,meteohub,2013-02-02 09:17:00,
2013-02-02 04:22:00,18.5,13.3,30.24,East,93,0.0,0.0,80,0.00,,,0.00,0.0,meteohub,2013-02-02 09:22:00,
2013-02-02 04:27:00,18.3,13.3,30.24,East,93,0.0,0.0,80,0.00,,,0.00,0.0,meteohub,2013-02-02 09:27:00,
2013-02-02 04:32:00,18.1,13.1,30.24,East,93,0.0,0.0,80,0.00,,,0.00,0.0,meteohub,2013-02-02 09:32:00,
2013-02-02 04:37:00,18.1,13.3,30.24,East,93,0.0,0.0,81,0.00,,,0.00,0.0,meteohub,2013-02-02 09:37:00,
2013-02-02 04:42:00,18.0,13.5,30.25,East,93,0.0,0.0,82,0.00,,,0.00,0.0,meteohub,2013-02-02 09:42:00,
2013-02-02 04:47:00,18.0,13.6,30.25,East,93,0.0,1.0,83,0.00,,,0.00,0.0,meteohub,2013-02-02 09:47:00,
2013-02-02 04:52:00,18.0,13.6,30.25,East,93,0.0,1.0,83,0.00,,,0.00,0.0,meteohub,2013-02-02 09:52:00,
2013-02-02 04:57:00,18.1,13.8,30.24,East,93,0.0,1.0,83,0.00,,,0.00,0.0,meteohub,2013-02-02 09:57:00,
2013-02-02 05:02:00,18.0,13.5,30.24,East,93,0.0,0.0,82,0.00,,,0.00,0.0,meteohub,2013-02-02 10:02:00,
2013-02-02 05:07:00,18.0,13.5,30.24,East,93,0.0,0.0,82,0.00,,,0.00,0.0,meteohub,2013-02-02 10:07:00,
2013-02-02 05:12:00,17.8,13.5,30.23,East,93,0.0,0.0,83,0.00,,,0.00,0.0,meteohub,2013-02-02 10:12:00,
2013-02-02 05:17:00,17.4,12.9,30.24,East,93,0.0,1.0,82,0.00,,,0.00,0.0,meteohub,2013-02-02 10:17:00,
2013-02-02 05:22:00,17.2,12.9,30.24,East,93,0.0,1.0,83,0.00,,,0.00,0.0,meteohub,2013-02-02 10:22:00,
2013-02-02 05:27:00,17.2,12.9,30.24,East,93,0.0,1.0,83,0.00,,,0.00,0.0,meteohub,2013-02-02 10:27:00,
2013-02-02 05:33:00,17.1,13.1,30.24,East,93,0.0,0.0,84,0.00,,,0.00,0.0,meteohub,2013-02-02 10:33:00,
2013-02-02 05:38:00,17.1,13.3,30.25,East,93,0.0,0.0,85,0.00,,,0.00,0.0,meteohub,2013-02-02 10:38:00,
2013-02-02 05:43:00,16.9,13.1,30.24,East,93,0.0,0.0,85,0.00,,,0.00,0.0,meteohub,2013-02-02 10:43:00,
2013-02-02 05:48:00,16.9,13.1,30.24,East,93,0.0,0.0,85,0.00,,,0.00,0.0,meteohub,2013-02-02 10:48:00,
2013-02-02 05:53:00,16.7,13.3,30.25,East,93,0.0,0.0,86,0.00,,,0.00,0.0,meteohub,2013-02-02 10:53:00,
2013-02-02 05:58:00,16.5,13.1,30.25,East,93,0.0,0.0,86,0.00,,,0.00,0.0,meteohub,2013-02-02 10:58:00,
2013-02-02 06:03:00,16.5,13.1,30.24,East,93,0.0,0.0,86,0.00,,,0.00,0.0,meteohub,2013-02-02 11:03:00,
2013-02-02 06:08:00,16.5,13.1,30.25,East,93,0.0,0.0,86,0.00,,,0.00,0.0,meteohub,2013-02-02 11:08:00,
2013-02-02 06:13:00,16.5,13.3,30.25,East,93,0.0,0.0,87,0.00,,,0.00,0.0,meteohub,2013-02-02 11:13:00,
2013-02-02 06:18:00,16.5,13.3,30.25,ESE,116,0.0,0.0,87,0.00,,,0.00,0.0,meteohub,2013-02-02 11:18:00,
2013-02-02 06:23:00,16.5,13.3,30.25,SSE,152,0.0,1.0,87,0.00,,,0.00,0.0,meteohub,2013-02-02 11:23:00,
2013-02-02 06:28:00,16.7,13.5,30.25,SSE,152,0.0,2.0,87,0.00,,,0.00,0.0,meteohub,2013-02-02 11:28:00,
2013-02-02 06:33:00,16.7,13.3,30.25,SSE,152,0.0,2.0,86,0.00,,,0.00,0.0,meteohub,2013-02-02 11:33:00,
2013-02-02 06:38:00,16.7,13.5,30.25,SSE,152,0.0,0.0,87,0.00,,,0.00,0.0,meteohub,2013-02-02 11:38:00,
2013-02-02 06:44:00,16.5,13.3,30.25,SSE,152,0.0,0.0,87,0.00,,,0.00,0.0,meteohub,2013-02-02 11:44:00,
2013-02-02 06:49:00,16.5,13.3,30.25,SSE,152,0.0,0.0,87,0.00,,,0.00,0.0,meteohub,2013-02-02 11:49:00,
2013-02-02 06:54:00,16.3,13.1,30.25,SSE,152,0.0,0.0,87,0.00,,,0.00,0.0,meteohub,2013-02-02 11:54:00,
2013-02-02 06:59:00,16.3,13.1,30.25,SSE,152,0.0,0.0,87,0.00,,,0.00,0.0,meteohub,2013-02-02 11:59:00,
2013-02-02 07:04:00,16.2,12.9,30.26,SSE,152,0.0,0.0,87,0.00,,,0.00,0.0,meteohub,2013-02-02 12:04:00,
2013-02-02 07:09:00,16.2,12.9,30.25,SSE,152,0.0,0.0,87,0.00,,,0.00,0.0,meteohub,2013-02-02 12:09:00,
2013-02-02 07:14:00,16.2,12.9,30.25,SSE,152,0.0,0.0,87,0.00,,,0.00,7.0,meteohub,2013-02-02 12:14:00,
2013-02-02 07:19:00,16.0,12.7,30.25,SSE,152,0.0,0.0,87,0.00,,,0.00,11.0,meteohub,2013-02-02 12:19:00,
2013-02-02 07:24:00,16.0,12.7,30.25,SSE,152,0.0,0.0,87,0.00,,,0.00,16.0,meteohub,2013-02-02 12:24:00,
2013-02-02 07:29:00,15.8,12.9,30.25,SSE,152,0.0,0.0,88,0.00,,,0.00,19.0,meteohub,2013-02-02 12:29:00,
2013-02-02 07:34:00,15.8,12.9,30.25,SSE,152,0.0,0.0,88,0.00,,,0.00,16.0,meteohub,2013-02-02 12:34:00,
2013-02-02 07:39:00,16.0,13.1,30.25,SSE,152,0.0,0.0,88,0.00,,,0.00,16.0,meteohub,2013-02-02 12:39:00,
2013-02-02 07:44:00,16.0,13.1,30.26,SSE,152,0.0,0.0,88,0.00,,,0.00,21.0,meteohub,2013-02-02 12:44:00,
2013-02-02 07:50:00,16.0,13.1,30.26,SSE,152,0.0,0.0,88,0.00,,,0.00,23.0,meteohub,2013-02-02 12:50:00,
2013-02-02 07:55:00,16.0,13.3,30.26,SSE,152,0.0,0.0,89,0.00,,,0.00,25.0,meteohub,2013-02-02 12:55:00,
2013-02-02 08:00:00,16.2,13.5,30.26,SSE,152,0.0,0.0,89,0.00,,,0.00,25.0,meteohub,2013-02-02 13:00:00,
2013-02-02 08:05:00,16.2,13.5,30.26,SSE,152,0.0,0.0,89,0.00,,,0.00,26.0,meteohub,2013-02-02 13:05:00,
2013-02-02 08:10:00,16.5,13.8,30.25,SSE,152,0.0,0.0,89,0.00,,,0.00,26.0,meteohub,2013-02-02 13:10:00,
2013-02-02 08:15:00,17.1,13.8,30.26,SSE,152,1.0,1.0,87,0.00,,,0.00,28.0,meteohub,2013-02-02 13:15:00,
2013-02-02 08:20:00,17.4,13.6,30.25,South,171,0.0,2.0,85,0.00,,,0.00,33.0,meteohub,2013-02-02 13:20:00,
2013-02-02 08:25:00,17.8,13.3,30.25,South,171,0.0,2.0,82,0.00,,,0.00,47.0,meteohub,2013-02-02 13:25:00,
2013-02-02 08:30:00,18.0,13.1,30.25,South,171,0.0,2.0,81,0.00,,,0.00,65.0,meteohub,2013-02-02 13:30:00,
2013-02-02 08:35:00,18.1,13.1,30.25,South,171,0.0,1.0,80,0.00,,,0.00,97.0,meteohub,2013-02-02 13:35:00,
2013-02-02 08:40:00,18.7,13.3,30.25,South,171,1.0,1.0,79,0.00,,,0.00,102.0,meteohub,2013-02-02 13:40:00,
2013-02-02 08:45:00,19.0,13.3,30.25,South,171,0.0,1.0,78,0.00,,,0.00,97.0,meteohub,2013-02-02 13:45:00,
2013-02-02 08:50:00,19.6,13.8,30.25,South,171,0.0,1.0,78,0.00,,,0.00,100.0,meteohub,2013-02-02 13:50:00,
2013-02-02 08:56:00,19.8,13.6,30.25,South,171,0.0,2.0,77,0.00,,,0.00,105.0,meteohub,2013-02-02 13:56:00,
2013-02-02 09:01:00,19.9,13.6,30.25,South,172,0.0,2.0,76,0.00,,,0.00,113.0,meteohub,2013-02-02 14:01:00,
2013-02-02 09:06:00,20.3,14.0,30.25,East,88,0.0,2.0,76,0.00,,,0.00,104.0,meteohub,2013-02-02 14:06:00,
2013-02-02 09:11:00,20.7,14.0,30.25,East,99,0.0,2.0,75,0.00,,,0.00,97.0,meteohub,2013-02-02 14:11:00,
2013-02-02 09:16:00,20.8,13.8,30.25,East,101,0.0,2.0,74,0.00,,,0.00,70.0,meteohub,2013-02-02 14:16:00,
2013-02-02 09:21:00,21.2,13.8,30.24,ESE,105,1.0,1.0,73,0.00,,,0.00,84.0,meteohub,2013-02-02 14:21:00,
2013-02-02 09:26:00,21.7,13.8,30.24,East,88,1.0,3.0,71,0.00,,,0.00,128.0,meteohub,2013-02-02 14:26:00,
2013-02-02 09:31:00,22.1,13.8,30.24,ESE,113,0.0,3.0,70,0.00,,,0.00,128.0,meteohub,2013-02-02 14:31:00,
2013-02-02 09:36:00,22.6,14.0,30.24,SSW,210,0.0,3.0,69,0.00,,,0.00,93.0,meteohub,2013-02-02 14:36:00,
2013-02-02 09:41:00,22.8,14.2,30.24,SW,229,0.0,4.0,69,0.00,,,0.00,116.0,meteohub,2013-02-02 14:41:00,
2013-02-02 09:46:00,23.2,13.8,30.24,WSW,242,0.0,4.0,67,0.00,,,0.00,202.0,meteohub,2013-02-02 14:46:00,
2013-02-02 09:51:00,23.4,13.6,30.23,SE,140,1.0,4.0,66,0.00,,,0.00,327.0,meteohub,2013-02-02 14:51:00,
2013-02-02 09:57:00,23.5,13.5,30.23,SW,232,0.0,3.0,65,0.00,,,0.00,297.0,meteohub,2013-02-02 14:57:00,
2013-02-02 10:02:00,23.9,13.8,30.23,SSE,154,2.0,3.0,65,0.00,,,0.00,385.0,meteohub,2013-02-02 15:02:00,
2013-02-02 10:07:00,24.3,13.8,30.23,SSW,198,0.0,3.0,64,0.00,,,0.00,269.0,meteohub,2013-02-02 15:07:00,
2013-02-02 10:12:00,24.6,13.1,30.22,ESE,109,0.0,3.0,61,0.00,,,0.00,214.0,meteohub,2013-02-02 15:12:00,
2013-02-02 10:17:00,24.6,13.1,30.22,West,267,2.0,3.0,61,0.00,,,0.00,241.0,meteohub,2013-02-02 15:17:00,
2013-02-02 10:22:00,24.8,12.9,30.22,East,97,3.0,3.0,60,0.00,,,0.00,352.0,meteohub,2013-02-02 15:22:00,
2013-02-02 10:27:00,25.2,12.9,30.22,East,96,0.0,3.0,59,0.00,,,0.00,343.0,meteohub,2013-02-02 15:27:00,
2013-02-02 10:32:00,25.3,12.6,30.22,SSW,200,1.0,8.0,58,0.00,,,0.00,394.0,meteohub,2013-02-02 15:32:00,
2013-02-02 10:38:00,25.3,11.8,30.21,WSW,251,3.0,8.0,56,0.00,,,0.00,432.0,meteohub,2013-02-02 15:38:00,
2013-02-02 10:43:00,25.3,12.2,30.21,WNW,297,1.0,8.0,57,0.00,,,0.00,297.0,meteohub,2013-02-02 15:43:00,
2013-02-02 10:48:00,25.3,11.5,30.21,WNW,285,0.0,4.0,55,0.00,,,0.00,309.0,meteohub,2013-02-02 15:48:00,
2013-02-02 10:53:00,25.5,11.1,30.20,WNW,286,0.0,4.0,54,0.00,,,0.00,195.0,meteohub,2013-02-02 15:53:00,
2013-02-02 10:58:00,25.5,11.7,30.20,ENE,75,0.0,8.0,55,0.00,,,0.00,346.0,meteohub,2013-02-02 15:58:00,
2013-02-02 11:03:00,25.9,12.4,30.19,SSW,205,1.0,8.0,56,0.00,,,0.00,243.0,meteohub,2013-02-02 16:03:00,
2013-02-02 11:08:00,26.1,12.0,30.19,West,272,3.0,8.0,55,0.00,,,0.00,339.0,meteohub,2013-02-02 16:08:00,
2013-02-02 11:13:00,26.2,11.8,30.19,ENE,74,1.0,4.0,54,0.00,,,0.00,292.0,meteohub,2013-02-02 16:13:00,
2013-02-02 11:18:00,26.2,11.5,30.19,NW,322,0.0,7.0,53,0.00,,,0.00,352.0,meteohub,2013-02-02 16:18:00,
2013-02-02 11:23:00,26.2,11.8,30.18,SSW,194,0.0,7.0,54,0.00,,,0.00,360.0,meteohub,2013-02-02 16:23:00,
2013-02-02 11:28:00,26.4,11.7,30.17,ESE,105,1.0,7.0,53,0.00,,,0.00,406.0,meteohub,2013-02-02 16:28:00,
2013-02-02 11:33:00,26.4,12.0,30.17,NW,323,1.0,7.0,54,0.00,,,0.00,497.0,meteohub,2013-02-02 16:33:00,
2013-02-02 11:38:00,26.8,11.5,30.17,ENE,68,4.0,7.0,52,0.00,,,0.00,485.0,meteohub,2013-02-02 16:38:00,
2013-02-02 11:44:00,27.0,11.7,30.17,WNW,290,2.0,7.0,52,0.00,,,0.00,527.0,meteohub,2013-02-02 16:44:00,
2013-02-02 11:49:00,27.1,11.8,30.16,West,275,1.0,6.0,52,0.00,,,0.00,510.0,meteohub,2013-02-02 16:49:00,
2013-02-02 11:54:00,27.1,11.5,30.16,WSW,239,1.0,6.0,51,0.00,,,0.00,497.0,meteohub,2013-02-02 16:54:00,
2013-02-02 11:59:00,27.1,11.8,30.15,WNW,294,0.0,7.0,52,0.00,,,0.00,454.0,meteohub,2013-02-02 16:59:00,
2013-02-02 12:04:00,27.1,11.8,30.15,NE,45,0.0,7.0,52,0.00,,,0.00,471.0,meteohub,2013-02-02 17:04:00,
2013-02-02 12:09:00,27.1,10.9,30.14,NE,38,2.0,6.0,50,0.00,,,0.00,446.0,meteohub,2013-02-02 17:09:00,
2013-02-02 12:14:00,27.1,10.6,30.14,East,81,1.0,6.0,49,0.00,,,0.00,490.0,meteohub,2013-02-02 17:14:00,
2013-02-02 12:19:00,27.3,10.8,30.14,West,274,1.0,7.0,49,0.00,,,0.00,413.0,meteohub,2013-02-02 17:19:00,
2013-02-02 12:24:00,27.3,11.7,30.13,SSW,192,3.0,7.0,51,0.00,,,0.00,338.0,meteohub,2013-02-02 17:24:00,
2013-02-02 12:29:00,27.5,10.4,30.13,WSW,255,1.0,6.0,48,0.00,,,0.00,373.0,meteohub,2013-02-02 17:29:00,
2013-02-02 12:34:00,27.7,11.5,30.13,SSW,212,0.0,6.0,50,0.00,,,0.00,353.0,meteohub,2013-02-02 17:34:00,
2013-02-02 12:39:00,27.7,10.6,30.12,South,175,4.0,6.0,48,0.00,,,0.00,329.0,meteohub,2013-02-02 17:39:00,
2013-02-02 12:45:00,27.7,10.9,30.12,SSW,194,3.0,8.0,49,0.00,,,0.00,364.0,meteohub,2013-02-02 17:45:00,
2013-02-02 12:50:00,27.7,10.6,30.12,SW,236,4.0,9.0,48,0.00,,,0.00,341.0,meteohub,2013-02-02 17:50:00,
2013-02-02 12:55:00,27.9,11.1,30.12,NW,319,1.0,7.0,49,0.00,,,0.00,360.0,meteohub,2013-02-02 17:55:00,
2013-02-02 13:00:00,27.7,10.6,30.11,WNW,296,1.0,8.0,48,0.00,,,0.00,229.0,meteohub,2013-02-02 18:00:00,
2013-02-02 13:05:00,27.9,10.2,30.11,SSW,198,2.0,8.0,47,0.00,,,0.00,359.0,meteohub,2013-02-02 18:05:00,
2013-02-02 13:10:00,27.9,10.8,30.10,NW,317,3.0,8.0,48,0.00,,,0.00,461.0,meteohub,2013-02-02 18:10:00,
2013-02-02 13:15:00,27.9,10.8,30.10,SW,234,0.0,7.0,48,0.00,,,0.00,366.0,meteohub,2013-02-02 18:15:00,
2013-02-02 13:20:00,28.2,11.1,30.10,South,187,1.0,6.0,48,0.00,,,0.00,311.0,meteohub,2013-02-02 18:20:00,
2013-02-02 13:25:00,28.2,10.6,30.10,ENE,58,1.0,6.0,47,0.00,,,0.00,169.0,meteohub,2013-02-02 18:25:00,
2013-02-02 13:30:00,27.9,9.7,30.10,SE,135,1.0,7.0,46,0.00,,,0.00,185.0,meteohub,2013-02-02 18:30:00,
2013-02-02 13:35:00,27.7,10.6,30.10,ESE,112,2.0,9.0,48,0.00,,,0.00,172.0,meteohub,2013-02-02 18:35:00,
2013-02-02 13:40:00,27.7,10.6,30.10,SSW,211,2.0,9.0,48,0.00,,,0.00,151.0,meteohub,2013-02-02 18:40:00,
2013-02-02 13:46:00,27.3,10.2,30.09,ENE,67,1.0,9.0,48,0.00,,,0.00,162.0,meteohub,2013-02-02 18:46:00,
2013-02-02 13:51:00,27.3,10.2,30.09,SSW,199,2.0,7.0,48,0.00,,,0.00,186.0,meteohub,2013-02-02 18:51:00,
2013-02-02 13:56:00,27.3,9.7,30.09,West,261,1.0,7.0,47,0.00,,,0.00,186.0,meteohub,2013-02-02 18:56:00,
2013-02-02 14:01:00,27.5,9.5,30.09,NW,316,0.0,7.0,46,0.00,,,0.00,206.0,meteohub,2013-02-02 19:01:00,
2013-02-02 14:06:00,27.7,10.6,30.09,South,184,1.0,8.0,48,0.00,,,0.00,179.0,meteohub,2013-02-02 19:06:00,
2013-02-02 14:11:00,27.7,10.6,30.09,ENE,62,0.0,8.0,48,0.00,,,0.00,134.0,meteohub,2013-02-02 19:11:00,
2013-02-02 14:16:00,27.7,9.7,30.08,ESE,112,0.0,10.0,46,0.00,,,0.00,148.0,meteohub,2013-02-02 19:16:00,
2013-02-02 14:21:00,27.7,10.0,30.08,NE,50,2.0,10.0,47,0.00,,,0.00,160.0,meteohub,2013-02-02 19:21:00,
2013-02-02 14:26:00,27.9,9.7,30.08,East,89,0.0,10.0,46,0.00,,,0.00,153.0,meteohub,2013-02-02 19:26:00,
2013-02-02 14:31:00,28.0,9.5,30.07,WSW,243,3.0,5.0,45,0.00,,,0.00,174.0,meteohub,2013-02-02 19:31:00,
2013-02-02 14:36:00,28.2,9.7,30.07,ESE,111,2.0,5.0,45,0.00,,,0.00,153.0,meteohub,2013-02-02 19:36:00,
2013-02-02 14:41:00,28.2,8.1,30.07,SW,220,2.0,5.0,42,0.00,,,0.00,120.0,meteohub,2013-02-02 19:41:00,
2013-02-02 14:47:00,28.4,9.3,30.07,SSW,200,3.0,7.0,44,0.00,,,0.00,127.0,meteohub,2013-02-02 19:47:00,
2013-02-02 14:52:00,28.6,9.5,30.07,East,92,1.0,7.0,44,0.00,,,0.00,151.0,meteohub,2013-02-02 19:52:00,
2013-02-02 14:57:00,28.6,9.5,30.07,South,180,0.0,4.0,44,0.00,,,0.00,139.0,meteohub,2013-02-02 19:57:00,
2013-02-02 15:02:00,28.8,9.1,30.06,NNE,16,3.0,5.0,43,0.00,,,0.00,135.0,meteohub,2013-02-02 20:02:00,
2013-02-02 15:07:00,28.6,9.9,30.06,SE,132,0.0,5.0,45,0.00,,,0.00,125.0,meteohub,2013-02-02 20:07:00,
2013-02-02 15:12:00,28.6,9.5,30.06,SSW,205,1.0,5.0,44,0.00,,,0.00,111.0,meteohub,2013-02-02 20:12:00,
2013-02-02 15:17:00,28.4,10.2,30.06,NW,325,0.0,5.0,46,0.00,,,0.00,107.0,meteohub,2013-02-02 20:17:00,
2013-02-02 15:22:00,28.4,10.2,30.06,East,80,1.0,5.0,46,0.00,,,0.00,109.0,meteohub,2013-02-02 20:22:00,
2013-02-02 15:27:00,28.2,9.7,30.06,SW,215,1.0,7.0,45,0.00,,,0.00,107.0,meteohub,2013-02-02 20:27:00,
2013-02-02 15:32:00,28.0,9.5,30.06,SSE,155,3.0,7.0,45,0.00,,,0.00,90.0,meteohub,2013-02-02 20:32:00,
2013-02-02 15:37:00,28.0,9.5,30.06,SW,230,0.0,8.0,45,0.00,,,0.00,81.0,meteohub,2013-02-02 20:37:00,
2013-02-02 15:42:00,28.0,9.9,30.06,SSW,198,0.0,8.0,46,0.00,,,0.00,77.0,meteohub,2013-02-02 20:42:00,
2013-02-02 15:47:00,27.9,9.7,30.06,NNW,342,0.0,8.0,46,0.00,,,0.00,72.0,meteohub,2013-02-02 20:47:00,
2013-02-02 15:52:00,27.9,10.2,30.06,NNW,335,2.0,5.0,47,0.00,,,0.00,70.0,meteohub,2013-02-02 20:52:00,
2013-02-02 15:57:00,27.7,10.0,30.06,NNE,19,0.0,5.0,47,0.00,,,0.00,67.0,meteohub,2013-02-02 20:57:00,
2013-02-02 16:02:00,27.5,9.9,30.06,ENE,61,1.0,5.0,47,0.00,,,0.00,63.0,meteohub,2013-02-02 21:02:00,
2013-02-02 16:07:00,27.5,10.4,30.06,NE,47,1.0,5.0,48,0.00,,,0.00,58.0,meteohub,2013-02-02 21:07:00,
2013-02-02 16:12:00,27.5,9.9,30.06,WSW,240,1.0,5.0,47,0.00,,,0.00,49.0,meteohub,2013-02-02 21:12:00,
2013-02-02 16:17:00,27.3,10.2,30.06,East,89,1.0,5.0,48,0.00,,,0.00,39.0,meteohub,2013-02-02 21:17:00,
2013-02-02 16:22:00,27.3,9.7,30.06,East,88,0.0,4.0,47,0.00,,,0.00,39.0,meteohub,2013-02-02 21:22:00,
2013-02-02 16:27:00,27.3,9.7,30.06,NE,53,1.0,4.0,47,0.00,,,0.00,37.0,meteohub,2013-02-02 21:27:00,
2013-02-02 16:32:00,27.3,9.7,30.06,SSW,199,3.0,4.0,47,0.00,,,0.00,28.0,meteohub,2013-02-02 21:32:00,
2013-02-02 16:37:00,27.1,9.5,30.06,SW,225,0.0,3.0,47,0.00,,,0.00,23.0,meteohub,2013-02-02 21:37:00,
2013-02-02 16:42:00,27.1,9.1,30.06,WNW,296,0.0,3.0,46,0.00,,,0.00,19.0,meteohub,2013-02-02 21:42:00,
2013-02-02 16:47:00,27.0,9.5,30.06,ENE,78,2.0,4.0,47,0.00,,,0.00,18.0,meteohub,2013-02-02 21:47:00,
2013-02-02 16:52:00,26.8,9.7,30.06,South,170,4.0,4.0,48,0.00,,,0.00,14.0,meteohub,2013-02-02 21:52:00,
2013-02-02 16:57:00,26.6,9.5,30.06,SW,221,0.0,5.0,48,0.00,,,0.00,9.0,meteohub,2013-02-02 21:57:00,
2013-02-02 17:02:00,26.4,9.9,30.06,South,190,0.0,5.0,49,0.00,,,0.00,5.0,meteohub,2013-02-02 22:02:00,
2013-02-02 17:07:00,26.2,10.2,30.06,South,186,2.0,5.0,50,0.00,,,0.00,0.0,meteohub,2013-02-02 22:07:00,
2013-02-02 17:12:00,26.1,10.4,30.06,ENE,74,0.0,5.0,51,0.00,,,0.00,0.0,meteohub,2013-02-02 22:12:00,
2013-02-02 17:17:00,26.1,11.3,30.06,West,265,1.0,4.0,53,0.00,,,0.00,0.0,meteohub,2013-02-02 22:17:00,
2013-02-02 17:22:00,25.9,11.1,30.06,SSW,203,1.0,5.0,53,0.00,,,0.00,0.0,meteohub,2013-02-02 22:22:00,
2013-02-02 17:27:00,25.7,11.3,30.06,NNW,331,1.0,8.0,54,0.00,,,0.00,0.0,meteohub,2013-02-02 22:27:00,
2013-02-02 17:32:00,25.5,11.7,30.06,WSW,246,2.0,8.0,55,0.00,,,0.00,0.0,meteohub,2013-02-02 22:32:00,
2013-02-02 17:37:00,25.5,12.0,30.06,SW,221,0.0,8.0,56,0.00,,,0.00,0.0,meteohub,2013-02-02 22:37:00,
2013-02-02 17:42:00,25.3,12.2,30.06,SSE,167,0.0,12.0,57,0.00,,,0.00,0.0,meteohub,2013-02-02 22:42:00,
2013-02-02 17:47:00,25.3,12.6,30.07,West,273,0.0,12.0,58,0.00,,,0.00,0.0,meteohub,2013-02-02 22:47:00,
2013-02-02 17:52:00,25.3,13.1,30.07,SSW,209,0.0,12.0,59,0.00,,,0.00,0.0,meteohub,2013-02-02 22:52:00,
2013-02-02 17:57:00,25.2,13.6,30.07,SW,228,0.0,4.0,61,0.00,,,0.00,0.0,meteohub,2013-02-02 22:57:00,
2013-02-02 18:02:00,25.2,13.6,30.07,SSW,209,2.0,5.0,61,0.00,,,0.00,0.0,meteohub,2013-02-02 23:02:00,
2013-02-02 18:07:00,25.0,13.8,30.07,SSE,158,0.0,5.0,62,0.00,,,0.00,0.0,meteohub,2013-02-02 23:07:00,
2013-02-02 18:12:00,25.0,14.5,30.07,ESE,112,1.0,4.0,64,0.00,,,0.00,0.0,meteohub,2013-02-02 23:12:00,
2013-02-02 18:17:00,24.6,14.5,30.07,South,179,0.0,4.0,65,0.00,,,0.00,0.0,meteohub,2013-02-02 23:17:00,
2013-02-02 18:22:00,24.6,14.5,30.07,ENE,64,0.0,7.0,65,0.00,,,0.00,0.0,meteohub,2013-02-02 23:22:00,
2013-02-02 18:27:00,24.6,14.9,30.07,ENE,65,0.0,7.0,66,0.00,,,0.00,0.0,meteohub,2013-02-02 23:27:00,
2013-02-02 18:32:00,24.4,15.1,30.07,ENE,66,0.0,7.0,67,0.00,,,0.00,0.0,meteohub,2013-02-02 23:32:00,
2013-02-02 18:38:00,24.4,15.1,30.07,East,85,0.0,3.0,67,0.00,,,0.00,0.0,meteohub,2013-02-02 23:38:00,
2013-02-02 18:43:00,24.4,15.1,30.07,South,174,0.0,3.0,67,0.00,,,0.00,0.0,meteohub,2013-02-02 23:43:00,
2013-02-02 18:48:00,24.4,15.4,30.08,South,173,2.0,3.0,68,0.00,,,0.00,0.0,meteohub,2013-02-02 23:48:00,
2013-02-02 18:53:00,24.3,15.3,30.08,NE,50,1.0,3.0,68,0.00,,,0.00,0.0,meteohub,2013-02-02 23:53:00,
2013-02-02 18:58:00,24.3,15.3,30.07,North,0,0.0,3.0,68,0.00,,,0.00,0.0,meteohub,2013-02-02 23:58:00,
2013-02-02 19:03:00,24.3,15.3,30.07,NNW,334,1.0,3.0,68,0.00,,,0.00,0.0,meteohub,2013-02-03 00:03:00,
2013-02-02 19:08:00,24.3,15.3,30.08,SSW,192,1.0,3.0,68,0.00,,,0.00,0.0,meteohub,2013-02-03 00:08:00,
2013-02-02 19:13:00,24.3,15.3,30.08,South,172,1.0,3.0,68,0.00,,,0.00,0.0,meteohub,2013-02-03 00:13:00,
2013-02-02 19:18:00,24.1,15.1,30.08,West,277,0.0,3.0,68,0.00,,,0.00,0.0,meteohub,2013-02-03 00:18:00,
2013-02-02 19:23:00,24.1,15.1,30.08,South,171,0.0,3.0,68,0.00,,,0.00,0.0,meteohub,2013-02-03 00:23:00,
2013-02-02 19:28:00,24.1,15.1,30.08,South,186,2.0,4.0,68,0.00,,,0.00,0.0,meteohub,2013-02-03 00:28:00,
2013-02-02 19:33:00,23.9,14.9,30.08,West,275,2.0,4.0,68,0.00,,,0.00,0.0,meteohub,2013-02-03 00:33:00,
2013-02-02 19:38:00,23.7,14.7,30.08,SSW,202,0.0,6.0,68,0.00,,,0.00,0.0,meteohub,2013-02-03 00:38:00,
2013-02-02 19:44:00,23.7,15.1,30.08,SW,223,1.0,6.0,69,0.00,,,0.00,0.0,meteohub,2013-02-03 00:44:00,
2013-02-02 19:49:00,23.5,14.5,30.08,WNW,293,0.0,4.0,68,0.00,,,0.00,0.0,meteohub,2013-02-03 00:49:00,
2013-02-02 19:54:00,23.5,14.9,30.08,WSW,248,4.0,6.0,69,0.00,,,0.00,0.0,meteohub,2013-02-03 00:54:00,
2013-02-02 19:59:00,23.4,15.1,30.08,NW,323,1.0,7.0,70,0.00,,,0.00,0.0,meteohub,2013-02-03 00:59:00,
2013-02-02 20:04:00,23.4,15.1,30.08,SSW,211,1.0,7.0,70,0.00,,,0.00,0.0,meteohub,2013-02-03 01:04:00,
2013-02-02 20:09:00,23.4,15.4,30.08,WNW,290,2.0,7.0,71,0.00,,,0.00,0.0,meteohub,2013-02-03 01:09:00,
2013-02-02 20:14:00,23.4,15.6,30.08,South,179,1.0,4.0,72,0.00,,,0.00,0.0,meteohub,2013-02-03 01:14:00,
2013-02-02 20:19:00,23.2,15.8,30.08,SSE,167,2.0,4.0,73,0.00,,,0.00,0.0,meteohub,2013-02-03 01:19:00,
2013-02-02 20:24:00,23.2,16.2,30.09,WSW,254,0.0,4.0,74,0.00,,,0.00,0.0,meteohub,2013-02-03 01:24:00,
2013-02-02 20:29:00,23.0,16.0,30.09,South,174,1.0,4.0,74,0.00,,,0.00,0.0,meteohub,2013-02-03 01:29:00,
2013-02-02 20:34:00,23.0,16.5,30.09,South,173,0.0,3.0,76,0.00,,,0.00,0.0,meteohub,2013-02-03 01:34:00,
2013-02-02 20:39:00,22.8,16.7,30.09,West,268,0.0,3.0,77,0.00,,,0.00,0.0,meteohub,2013-02-03 01:39:00,
2013-02-02 20:44:00,22.6,16.9,30.09,SSW,194,0.0,2.0,78,0.00,,,0.00,0.0,meteohub,2013-02-03 01:44:00,
2013-02-02 20:50:00,22.5,17.2,30.09,SSW,193,0.0,3.0,80,0.00,,,0.00,0.0,meteohub,2013-02-03 01:50:00,
2013-02-02 20:55:00,22.5,17.2,30.09,SSW,198,1.0,3.0,80,0.00,,,0.00,0.0,meteohub,2013-02-03 01:55:00,
2013-02-02 21:00:00,22.3,17.4,30.09,SW,219,0.0,4.0,81,0.00,,,0.00,0.0,meteohub,2013-02-03 02:00:00,
2013-02-02 21:05:00,22.3,17.6,30.09,SW,234,1.0,4.0,82,0.00,,,0.00,0.0,meteohub,2013-02-03 02:05:00,
2013-02-02 21:10:00,22.1,17.8,30.09,SSW,205,0.0,4.0,83,0.00,,,0.00,0.0,meteohub,2013-02-03 02:10:00,
2013-02-02 21:15:00,22.1,17.8,30.09,WSW,242,0.0,3.0,83,0.00,,,0.00,0.0,meteohub,2013-02-03 02:15:00,
2013-02-02 21:20:00,22.1,17.8,30.09,WSW,254,0.0,3.0,83,0.00,,,0.00,0.0,meteohub,2013-02-03 02:20:00,
2013-02-02 21:25:00,21.9,17.6,30.09,WSW,254,0.0,1.0,83,0.00,,,0.00,0.0,meteohub,2013-02-03 02:25:00,
2013-02-02 21:30:00,21.9,17.6,30.09,SW,234,1.0,1.0,83,0.00,,,0.00,0.0,meteohub,2013-02-03 02:30:00,
2013-02-02 21:35:00,21.9,17.8,30.09,SSE,148,0.0,1.0,84,0.00,,,0.00,0.0,meteohub,2013-02-03 02:35:00,
2013-02-02 21:40:00,21.7,17.6,30.09,SW,223,0.0,3.0,84,0.00,,,0.00,0.0,meteohub,2013-02-03 02:40:00,
2013-02-02 21:45:00,21.7,18.0,30.09,West,268,1.0,4.0,85,0.00,,,0.00,0.0,meteohub,2013-02-03 02:45:00,
2013-02-02 21:51:00,21.7,17.6,30.09,SE,132,0.0,4.0,84,0.00,,,0.00,0.0,meteohub,2013-02-03 02:51:00,
2013-02-02 21:56:00,21.7,18.0,30.09,WSW,240,1.0,4.0,85,0.00,,,0.00,0.0,meteohub,2013-02-03 02:56:00,
2013-02-02 22:01:00,21.7,18.0,30.09,WSW,240,0.0,3.0,85,0.00,,,0.00,0.0,meteohub,2013-02-03 03:01:00,
2013-02-02 22:06:00,21.7,18.0,30.08,WSW,243,0.0,3.0,85,0.00,,,0.00,0.0,meteohub,2013-02-03 03:06:00,
2013-02-02 22:11:00,21.7,18.1,30.08,WSW,237,0.0,3.0,86,0.00,,,0.00,0.0,meteohub,2013-02-03 03:11:00,
2013-02-02 22:16:00,21.7,18.1,30.08,SW,231,0.0,3.0,86,0.00,,,0.00,0.0,meteohub,2013-02-03 03:16:00,
2013-02-02 22:21:00,21.7,18.1,30.09,SW,231,1.0,2.0,86,0.00,,,0.00,0.0,meteohub,2013-02-03 03:21:00,
2013-02-02 22:26:00,21.7,18.1,30.08,SW,234,0.0,1.0,86,0.00,,,0.00,0.0,meteohub,2013-02-03 03:26:00,
2013-02-02 22:31:00,21.7,18.1,30.09,SW,227,1.0,1.0,86,0.00,,,0.00,0.0,meteohub,2013-02-03 03:31:00,
2013-02-02 22:36:00,21.7,18.1,30.08,SW,236,0.0,2.0,86,0.00,,,0.00,0.0,meteohub,2013-02-03 03:36:00,
2013-02-02 22:41:00,21.7,18.1,30.08,SW,223,0.0,2.0,86,0.00,,,0.00,0.0,meteohub,2013-02-03 03:41:00,
2013-02-02 22:46:00,21.7,18.1,30.08,SW,231,0.0,2.0,86,0.00,,,0.00,0.0,meteohub,2013-02-03 03:46:00,
2013-02-02 22:52:00,21.7,18.1,30.08,SW,231,0.0,2.0,86,0.00,,,0.00,0.0,meteohub,2013-02-03 03:52:00,
2013-02-02 22:57:00,21.7,18.1,30.08,SW,225,0.0,2.0,86,0.00,,,0.00,0.0,meteohub,2013-02-03 03:57:00,
2013-02-02 23:02:00,21.7,18.1,30.08,SW,225,0.0,2.0,86,0.00,,,0.00,0.0,meteohub,2013-02-03 04:02:00,
2013-02-02 23:07:00,21.7,18.1,30.08,SW,225,0.0,2.0,86,0.00,,,0.00,0.0,meteohub,2013-02-03 04:07:00,
2013-02-02 23:12:00,21.7,18.1,30.08,SW,225,0.0,1.0,86,0.00,,,0.00,0.0,meteohub,2013-02-03 04:12:00,
2013-02-02 23:17:00,21.7,18.1,30.08,SW,225,0.0,1.0,86,0.00,,,0.00,0.0,meteohub,2013-02-03 04:17:00,
2013-02-02 23:22:00,21.7,18.1,30.08,SW,225,0.0,0.0,86,0.00,,,0.00,0.0,meteohub,2013-02-03 04:22:00,
2013-02-02 23:27:00,21.7,18.1,30.08,SW,225,0.0,1.0,86,0.00,,,0.00,0.0,meteohub,2013-02-03 04:27:00,
2013-02-02 23:32:00,21.7,18.1,30.08,SW,225,0.0,1.0,86,0.00,,,0.00,0.0,meteohub,2013-02-03 04:32:00,
2013-02-02 23:37:00,21.6,18.0,30.08,SW,225,0.0,1.0,86,0.00,,,0.00,0.0,meteohub,2013-02-03 04:37:00,
2013-02-02 23:42:00,21.6,18.0,30.08,SW,225,0.0,1.0,86,0.00,,,0.00,0.0,meteohub,2013-02-03 04:42:00,
2013-02-02 23:47:00,21.6,18.0,30.07,SW,225,0.0,1.0,86,0.00,,,0.00,0.0,meteohub,2013-02-03 04:47:00,
2013-02-02 23:52:00,21.6,18.0,30.07,SW,225,0.0,1.0,86,0.00,,,0.00,0.0,meteohub,2013-02-03 04:52:00,
2013-02-02 23:57:00,21.6,18.0,30.07,SW,225,0.0,0.0,86,0.00,,,0.00,0.0,meteohub,2013-02-03 04:57:00,